Gray Army Air Field
KGRF : now visible

Airfield :











YOU CAN JOIN US ON...

 
LOGIN :

Register | Disclaimer

   EN    FR    IT 

 









Legend :    VFR   Marginal VFR   IFR   Intensive IFR   Very Intensive IFR
Visi :
Ceiling :
>= 8 km
>= 3000ft
5 to 8 km
1000 to 3000 ft
1500m to 5 km
500 to 1000 ft
800 to 1500m
200 to 500 ft
< 800m
< 200 ft
Symbols :   Thunderstorms  Fog  Heavy snow  Heavy precipitations  Wind > 20 kt






- Airport Elevation : 300 ft


KGRF - Gray Army Air Field

CURRENT METAR :
  • 110258Z AUTO 27009KT 10SM CLR 24/16 A2996 RMK AO2 SLP148 T02390162 56008

EXPIRED METARs :
  • 110158Z AUTO 28007KT 10SM CLR 27/17 A2996 RMK AO2 SLP148 T02670172
  • 110058Z AUTO 26006KT 10SM CLR 28/17 A2997 RMK AO2 SLP152 T02800172

TAF TAF KGRF
Valid from the 10 at 21:00 until the 12 at 03:00 UTC


102100Z 1021/1203 32009KT 9999 SKC QNH3005INS
BECMG 1108/1109 29009KT 9999 SCT030 QNH2996INS
BECMG 1110/1111 21006KT 9999 BKN015 QNH2997INS
BECMG 1119/1120 22012KT 9999 SKC QNH2996INS TX26/1023Z TN13/1112Z
KZSE FIR / North America



MET'MAP, your aeronautical weather chart ! - Copyright ORBIFLY December 2007 - Disclaimer

ORBIFLY MET'MAP TEAM :

Programming & Development : Alexandra Zaïnal
Concept & original design : Baudouin d'Aumeries
Assistance for programming : Marc-Olivier Méhu
Technical & hardware support : Manuel Goepfert

Contact : metmap@orbifly.com




SOURCES & CREDITS :

   NOAA       Earth
Advisory